sensor_id;sensor_type;location;lat;lon;timestamp;temperature;humidity
7117;DHT22;3600;48.568;7.870;2023-09-08T00:02:26;20.10;99.90
7117;DHT22;3600;48.568;7.870;2023-09-08T00:04:54;19.90;99.90
7117;DHT22;3600;48.568;7.870;2023-09-08T00:07:21;19.80;99.90
7117;DHT22;3600;48.568;7.870;2023-09-08T00:09:49;19.70;99.90
7117;DHT22;3600;48.568;7.870;2023-09-08T00:12:16;19.70;99.90
7117;DHT22;3600;48.568;7.870;2023-09-08T00:14:43;19.70;99.90
7117;DHT22;3600;48.568;7.870;2023-09-08T00:17:10;19.60;99.90
7117;DHT22;3600;48.568;7.870;2023-09-08T00:19:37;19.60;99.90
7117;DHT22;3600;48.568;7.870;2023-09-08T00:22:05;19.60;99.90
7117;DHT22;3600;48.568;7.870;2023-09-08T00:24:33;19.50;99.90
7117;DHT22;3600;48.568;7.870;2023-09-08T00:27:00;19.50;99.90
7117;DHT22;3600;48.568;7.870;2023-09-08T00:29:27;19.50;99.90
7117;DHT22;3600;48.568;7.870;2023-09-08T00:31:54;19.50;99.90
7117;DHT22;3600;48.568;7.870;2023-09-08T00:34:21;19.40;99.90
7117;DHT22;3600;48.568;7.870;2023-09-08T00:36:48;19.50;99.90
7117;DHT22;3600;48.568;7.870;2023-09-08T00:39:15;19.50;99.90
7117;DHT22;3600;48.568;7.870;2023-09-08T00:41:41;19.50;99.90
7117;DHT22;3600;48.568;7.870;2023-09-08T00:44:08;19.50;99.90
7117;DHT22;3600;48.568;7.870;2023-09-08T00:46:36;19.40;99.90
7117;DHT22;3600;48.568;7.870;2023-09-08T00:49:03;19.40;99.90
7117;DHT22;3600;48.568;7.870;2023-09-08T00:51:30;19.60;99.90
7117;DHT22;3600;48.568;7.870;2023-09-08T00:53:57;19.70;99.90
7117;DHT22;3600;48.568;7.870;2023-09-08T00:56:24;19.80;99.90
7117;DHT22;3600;48.568;7.870;2023-09-08T00:58:51;19.70;99.90
7117;DHT22;3600;48.568;7.870;2023-09-08T01:01:18;19.80;99.90
7117;DHT22;3600;48.568;7.870;2023-09-08T01:03:46;19.70;99.90
7117;DHT22;3600;48.568;7.870;2023-09-08T01:06:13;19.90;99.90
7117;DHT22;3600;48.568;7.870;2023-09-08T01:08:40;19.90;99.90
7117;DHT22;3600;48.568;7.870;2023-09-08T01:11:08;19.90;99.90
7117;DHT22;3600;48.568;7.870;2023-09-08T01:13:35;20.00;99.90
7117;DHT22;3600;48.568;7.870;2023-09-08T01:16:02;20.10;99.90
7117;DHT22;3600;48.568;7.870;2023-09-08T01:18:29;20.00;99.90
7117;DHT22;3600;48.568;7.870;2023-09-08T01:24:02;19.90;99.90
7117;DHT22;3600;48.568;7.870;2023-09-08T01:26:37;19.90;99.90
7117;DHT22;3600;48.568;7.870;2023-09-08T01:29:09;19.90;99.90
7117;DHT22;3600;48.568;7.870;2023-09-08T01:31:37;19.90;99.90
7117;DHT22;3600;48.568;7.870;2023-09-08T01:34:05;19.90;99.90
7117;DHT22;3600;48.568;7.870;2023-09-08T01:36:34;19.90;99.90
7117;DHT22;3600;48.568;7.870;2023-09-08T01:39:02;19.90;99.90
7117;DHT22;3600;48.568;7.870;2023-09-08T01:41:30;19.90;99.90
7117;DHT22;3600;48.568;7.870;2023-09-08T01:43:59;19.90;99.90
7117;DHT22;3600;48.568;7.870;2023-09-08T01:46:26;19.90;99.90
7117;DHT22;3600;48.568;7.870;2023-09-08T01:48:53;19.90;99.90
7117;DHT22;3600;48.568;7.870;2023-09-08T01:51:20;19.90;99.90
7117;DHT22;3600;48.568;7.870;2023-09-08T01:53:46;19.90;99.90
7117;DHT22;3600;48.568;7.870;2023-09-08T01:56:13;19.90;99.90
7117;DHT22;3600;48.568;7.870;2023-09-08T01:58:40;19.90;99.90
7117;DHT22;3600;48.568;7.870;2023-09-08T02:01:10;19.90;99.90
7117;DHT22;3600;48.568;7.870;2023-09-08T02:03:37;19.80;99.90
7117;DHT22;3600;48.568;7.870;2023-09-08T02:06:03;19.70;99.90
7117;DHT22;3600;48.568;7.870;2023-09-08T02:08:30;19.80;99.90
7117;DHT22;3600;48.568;7.870;2023-09-08T02:10:57;19.80;99.90
7117;DHT22;3600;48.568;7.870;2023-09-08T02:13:24;19.80;99.90
7117;DHT22;3600;48.568;7.870;2023-09-08T02:15:51;19.70;99.90
7117;DHT22;3600;48.568;7.870;2023-09-08T02:18:18;19.70;99.90
7117;DHT22;3600;48.568;7.870;2023-09-08T02:20:45;19.70;99.90
7117;DHT22;3600;48.568;7.870;2023-09-08T02:23:11;19.70;99.90
7117;DHT22;3600;48.568;7.870;2023-09-08T02:25:38;19.70;99.90
7117;DHT22;3600;48.568;7.870;2023-09-08T02:28:05;19.70;99.90
7117;DHT22;3600;48.568;7.870;2023-09-08T02:30:32;19.70;99.90
7117;DHT22;3600;48.568;7.870;2023-09-08T02:32:59;19.60;99.90
7117;DHT22;3600;48.568;7.870;2023-09-08T02:35:26;19.60;99.90
7117;DHT22;3600;48.568;7.870;2023-09-08T02:37:53;19.60;99.90
7117;DHT22;3600;48.568;7.870;2023-09-08T02:40:20;19.60;99.90
7117;DHT22;3600;48.568;7.870;2023-09-08T02:42:47;19.60;99.90
7117;DHT22;3600;48.568;7.870;2023-09-08T02:45:14;19.60;99.90
7117;DHT22;3600;48.568;7.870;2023-09-08T02:47:41;19.60;99.90
7117;DHT22;3600;48.568;7.870;2023-09-08T02:50:08;19.60;99.90
7117;DHT22;3600;48.568;7.870;2023-09-08T02:52:35;19.60;99.90
7117;DHT22;3600;48.568;7.870;2023-09-08T02:55:02;19.60;99.90
7117;DHT22;3600;48.568;7.870;2023-09-08T02:57:29;19.60;99.90
7117;DHT22;3600;48.568;7.870;2023-09-08T02:59:56;19.60;99.90
7117;DHT22;3600;48.568;7.870;2023-09-08T03:02:26;19.50;99.90
7117;DHT22;3600;48.568;7.870;2023-09-08T03:04:53;19.50;99.90
7117;DHT22;3600;48.568;7.870;2023-09-08T03:07:20;19.50;99.90
7117;DHT22;3600;48.568;7.870;2023-09-08T03:09:47;19.50;99.90
7117;DHT22;3600;48.568;7.870;2023-09-08T03:12:14;19.30;99.90
7117;DHT22;3600;48.568;7.870;2023-09-08T03:14:43;19.20;99.90
7117;DHT22;3600;48.568;7.870;2023-09-08T03:17:12;19.10;99.90
7117;DHT22;3600;48.568;7.870;2023-09-08T03:19:39;18.90;99.90
7117;DHT22;3600;48.568;7.870;2023-09-08T03:22:06;18.80;99.90
7117;DHT22;3600;48.568;7.870;2023-09-08T03:24:33;19.00;99.90
7117;DHT22;3600;48.568;7.870;2023-09-08T03:27:00;18.90;99.90
7117;DHT22;3600;48.568;7.870;2023-09-08T03:29:26;18.60;99.90
7117;DHT22;3600;48.568;7.870;2023-09-08T03:31:53;18.30;99.90
7117;DHT22;3600;48.568;7.870;2023-09-08T03:34:20;18.20;99.90
7117;DHT22;3600;48.568;7.870;2023-09-08T03:36:49;18.10;99.90
7117;DHT22;3600;48.568;7.870;2023-09-08T03:39:16;18.10;99.90
7117;DHT22;3600;48.568;7.870;2023-09-08T03:41:43;18.00;99.90
7117;DHT22;3600;48.568;7.870;2023-09-08T03:44:09;18.00;99.90
7117;DHT22;3600;48.568;7.870;2023-09-08T03:46:36;18.10;99.90
7117;DHT22;3600;48.568;7.870;2023-09-08T03:49:04;18.10;99.90
7117;DHT22;3600;48.568;7.870;2023-09-08T03:51:30;18.10;99.90
7117;DHT22;3600;48.568;7.870;2023-09-08T03:53:57;18.00;99.90
7117;DHT22;3600;48.568;7.870;2023-09-08T03:56:24;18.00;99.90
7117;DHT22;3600;48.568;7.870;2023-09-08T03:58:51;17.90;99.90
7117;DHT22;3600;48.568;7.870;2023-09-08T04:01:18;17.90;99.90
7117;DHT22;3600;48.568;7.870;2023-09-08T04:03:45;17.80;99.90
7117;DHT22;3600;48.568;7.870;2023-09-08T04:06:12;17.80;99.90
7117;DHT22;3600;48.568;7.870;2023-09-08T04:08:39;17.90;99.90
7117;DHT22;3600;48.568;7.870;2023-09-08T04:11:06;17.80;99.90
7117;DHT22;3600;48.568;7.870;2023-09-08T04:13:32;17.90;99.90
7117;DHT22;3600;48.568;7.870;2023-09-08T04:16:00;17.90;99.90
7117;DHT22;3600;48.568;7.870;2023-09-08T04:18:27;17.80;99.90
7117;DHT22;3600;48.568;7.870;2023-09-08T04:20:54;17.80;99.90
7117;DHT22;3600;48.568;7.870;2023-09-08T04:23:22;17.80;99.90
7117;DHT22;3600;48.568;7.870;2023-09-08T04:25:49;17.80;99.90
7117;DHT22;3600;48.568;7.870;2023-09-08T04:28:16;17.80;99.90
7117;DHT22;3600;48.568;7.870;2023-09-08T04:30:43;17.70;99.90
7117;DHT22;3600;48.568;7.870;2023-09-08T04:33:10;17.90;99.90
7117;DHT22;3600;48.568;7.870;2023-09-08T04:35:37;17.90;99.90
7117;DHT22;3600;48.568;7.870;2023-09-08T04:38:04;18.00;99.90
7117;DHT22;3600;48.568;7.870;2023-09-08T04:40:30;18.10;99.90
7117;DHT22;3600;48.568;7.870;2023-09-08T04:42:57;18.10;99.90
7117;DHT22;3600;48.568;7.870;2023-09-08T04:45:24;18.20;99.90
7117;DHT22;3600;48.568;7.870;2023-09-08T04:47:51;18.10;99.90
7117;DHT22;3600;48.568;7.870;2023-09-08T04:50:18;18.00;99.90
7117;DHT22;3600;48.568;7.870;2023-09-08T04:52:45;17.90;99.90
7117;DHT22;3600;48.568;7.870;2023-09-08T04:55:12;17.90;99.90
7117;DHT22;3600;48.568;7.870;2023-09-08T04:57:39;18.00;99.90
7117;DHT22;3600;48.568;7.870;2023-09-08T05:00:06;17.90;99.90
7117;DHT22;3600;48.568;7.870;2023-09-08T05:02:33;17.80;99.90
7117;DHT22;3600;48.568;7.870;2023-09-08T05:05:03;17.80;99.90
7117;DHT22;3600;48.568;7.870;2023-09-08T05:07:30;17.70;99.90
7117;DHT22;3600;48.568;7.870;2023-09-08T05:09:57;17.60;99.90
7117;DHT22;3600;48.568;7.870;2023-09-08T05:12:24;17.60;99.90
7117;DHT22;3600;48.568;7.870;2023-09-08T05:14:51;17.50;99.90
7117;DHT22;3600;48.568;7.870;2023-09-08T05:17:26;17.50;99.90
7117;DHT22;3600;48.568;7.870;2023-09-08T05:19:52;17.50;99.90
7117;DHT22;3600;48.568;7.870;2023-09-08T05:22:19;17.70;99.90
7117;DHT22;3600;48.568;7.870;2023-09-08T05:24:48;17.80;99.90
7117;DHT22;3600;48.568;7.870;2023-09-08T05:27:15;18.00;99.90
7117;DHT22;3600;48.568;7.870;2023-09-08T05:29:42;18.00;99.90
7117;DHT22;3600;48.568;7.870;2023-09-08T05:32:09;18.00;99.90
7117;DHT22;3600;48.568;7.870;2023-09-08T05:34:35;17.90;99.90
7117;DHT22;3600;48.568;7.870;2023-09-08T05:37:03;17.80;99.90
7117;DHT22;3600;48.568;7.870;2023-09-08T05:39:30;17.80;99.90
7117;DHT22;3600;48.568;7.870;2023-09-08T05:41:57;17.90;99.90
7117;DHT22;3600;48.568;7.870;2023-09-08T05:44:23;18.00;99.90
7117;DHT22;3600;48.568;7.870;2023-09-08T05:46:51;18.00;99.90
7117;DHT22;3600;48.568;7.870;2023-09-08T05:49:18;18.00;99.90
7117;DHT22;3600;48.568;7.870;2023-09-08T05:51:45;18.20;99.90
7117;DHT22;3600;48.568;7.870;2023-09-08T05:54:12;18.30;99.90
7117;DHT22;3600;48.568;7.870;2023-09-08T05:56:39;18.30;99.90
7117;DHT22;3600;48.568;7.870;2023-09-08T05:59:06;18.40;99.90
7117;DHT22;3600;48.568;7.870;2023-09-08T06:01:32;18.30;99.90
7117;DHT22;3600;48.568;7.870;2023-09-08T06:03:59;18.30;99.90
7117;DHT22;3600;48.568;7.870;2023-09-08T06:06:26;17.90;99.90
7117;DHT22;3600;48.568;7.870;2023-09-08T06:08:55;17.80;99.90
7117;DHT22;3600;48.568;7.870;2023-09-08T06:11:22;18.00;99.90
7117;DHT22;3600;48.568;7.870;2023-09-08T06:13:49;18.20;99.90
7117;DHT22;3600;48.568;7.870;2023-09-08T06:16:16;18.40;99.90
7117;DHT22;3600;48.568;7.870;2023-09-08T06:18:43;18.50;99.90
7117;DHT22;3600;48.568;7.870;2023-09-08T06:21:11;18.60;99.90
7117;DHT22;3600;48.568;7.870;2023-09-08T06:23:37;18.60;99.90
7117;DHT22;3600;48.568;7.870;2023-09-08T06:26:04;18.50;99.90
7117;DHT22;3600;48.568;7.870;2023-09-08T06:28:31;18.40;99.90
7117;DHT22;3600;48.568;7.870;2023-09-08T06:30:59;18.40;99.90
7117;DHT22;3600;48.568;7.870;2023-09-08T06:33:26;18.50;99.90
7117;DHT22;3600;48.568;7.870;2023-09-08T06:35:53;18.60;99.90
7117;DHT22;3600;48.568;7.870;2023-09-08T06:38:20;18.70;99.90
7117;DHT22;3600;48.568;7.870;2023-09-08T06:40:47;18.70;99.90
7117;DHT22;3600;48.568;7.870;2023-09-08T06:43:14;18.80;99.90
7117;DHT22;3600;48.568;7.870;2023-09-08T06:45:41;18.90;99.90
7117;DHT22;3600;48.568;7.870;2023-09-08T06:48:08;19.00;99.90
7117;DHT22;3600;48.568;7.870;2023-09-08T06:50:35;19.10;99.90
7117;DHT22;3600;48.568;7.870;2023-09-08T06:53:02;19.10;99.90
7117;DHT22;3600;48.568;7.870;2023-09-08T06:55:29;19.10;99.90
7117;DHT22;3600;48.568;7.870;2023-09-08T06:57:57;19.20;99.90
7117;DHT22;3600;48.568;7.870;2023-09-08T07:00:23;19.30;99.90
7117;DHT22;3600;48.568;7.870;2023-09-08T07:02:51;19.20;99.90
7117;DHT22;3600;48.568;7.870;2023-09-08T07:05:18;19.30;99.90
7117;DHT22;3600;48.568;7.870;2023-09-08T07:07:45;19.40;99.90
7117;DHT22;3600;48.568;7.870;2023-09-08T07:10:14;19.50;99.90
7117;DHT22;3600;48.568;7.870;2023-09-08T07:12:42;19.50;99.90
7117;DHT22;3600;48.568;7.870;2023-09-08T07:15:09;19.50;99.90
7117;DHT22;3600;48.568;7.870;2023-09-08T07:17:36;19.50;99.90
7117;DHT22;3600;48.568;7.870;2023-09-08T07:20:04;19.50;99.90
7117;DHT22;3600;48.568;7.870;2023-09-08T07:22:31;19.50;99.90
7117;DHT22;3600;48.568;7.870;2023-09-08T07:24:57;19.50;99.90
7117;DHT22;3600;48.568;7.870;2023-09-08T07:27:24;19.60;99.90
7117;DHT22;3600;48.568;7.870;2023-09-08T07:29:51;19.70;99.90
7117;DHT22;3600;48.568;7.870;2023-09-08T07:32:18;19.70;99.90
7117;DHT22;3600;48.568;7.870;2023-09-08T07:34:45;19.70;99.90
7117;DHT22;3600;48.568;7.870;2023-09-08T07:37:12;19.70;99.90
7117;DHT22;3600;48.568;7.870;2023-09-08T07:39:39;19.90;99.90
7117;DHT22;3600;48.568;7.870;2023-09-08T07:42:06;19.90;99.90
7117;DHT22;3600;48.568;7.870;2023-09-08T07:44:35;19.90;99.90
7117;DHT22;3600;48.568;7.870;2023-09-08T07:47:02;20.00;99.90
7117;DHT22;3600;48.568;7.870;2023-09-08T07:49:28;20.10;99.90
7117;DHT22;3600;48.568;7.870;2023-09-08T07:51:55;20.20;99.90
7117;DHT22;3600;48.568;7.870;2023-09-08T07:54:22;20.30;99.90
7117;DHT22;3600;48.568;7.870;2023-09-08T07:56:49;20.30;99.90
7117;DHT22;3600;48.568;7.870;2023-09-08T07:59:16;20.40;99.90
7117;DHT22;3600;48.568;7.870;2023-09-08T08:01:43;20.40;99.90
7117;DHT22;3600;48.568;7.870;2023-09-08T08:04:10;20.50;99.90
7117;DHT22;3600;48.568;7.870;2023-09-08T08:06:37;20.50;99.90
7117;DHT22;3600;48.568;7.870;2023-09-08T08:09:04;20.60;99.90
7117;DHT22;3600;48.568;7.870;2023-09-08T08:11:31;20.60;99.90
7117;DHT22;3600;48.568;7.870;2023-09-08T08:13:58;20.80;99.90
7117;DHT22;3600;48.568;7.870;2023-09-08T08:16:25;20.80;99.90
7117;DHT22;3600;48.568;7.870;2023-09-08T08:18:52;20.90;99.90
7117;DHT22;3600;48.568;7.870;2023-09-08T08:21:19;20.90;99.90
7117;DHT22;3600;48.568;7.870;2023-09-08T08:23:46;21.00;99.90
7117;DHT22;3600;48.568;7.870;2023-09-08T08:26:13;21.00;99.90
7117;DHT22;3600;48.568;7.870;2023-09-08T08:28:40;21.10;99.90
7117;DHT22;3600;48.568;7.870;2023-09-08T08:31:06;21.20;99.90
7117;DHT22;3600;48.568;7.870;2023-09-08T08:33:33;21.20;99.90
7117;DHT22;3600;48.568;7.870;2023-09-08T08:36:00;21.40;99.90
7117;DHT22;3600;48.568;7.870;2023-09-08T08:38:27;21.40;99.90
7117;DHT22;3600;48.568;7.870;2023-09-08T08:40:54;21.50;99.90
7117;DHT22;3600;48.568;7.870;2023-09-08T08:43:21;21.50;99.90
7117;DHT22;3600;48.568;7.870;2023-09-08T08:45:50;21.60;99.90
7117;DHT22;3600;48.568;7.870;2023-09-08T08:48:18;21.60;99.90
7117;DHT22;3600;48.568;7.870;2023-09-08T08:50:47;21.70;99.90
7117;DHT22;3600;48.568;7.870;2023-09-08T08:53:16;21.80;99.90
7117;DHT22;3600;48.568;7.870;2023-09-08T08:55:44;21.90;99.90
7117;DHT22;3600;48.568;7.870;2023-09-08T08:58:13;21.90;99.90
7117;DHT22;3600;48.568;7.870;2023-09-08T09:00:41;22.00;99.90
7117;DHT22;3600;48.568;7.870;2023-09-08T09:03:11;22.10;99.90
7117;DHT22;3600;48.568;7.870;2023-09-08T09:05:42;22.10;99.90
7117;DHT22;3600;48.568;7.870;2023-09-08T09:08:15;22.20;99.90
7117;DHT22;3600;48.568;7.870;2023-09-08T09:10:42;22.50;99.90
7117;DHT22;3600;48.568;7.870;2023-09-08T09:13:09;22.60;99.90
7117;DHT22;3600;48.568;7.870;2023-09-08T09:15:36;22.60;99.90
7117;DHT22;3600;48.568;7.870;2023-09-08T09:18:07;22.60;99.90
7117;DHT22;3600;48.568;7.870;2023-09-08T09:20:35;22.60;99.90
7117;DHT22;3600;48.568;7.870;2023-09-08T09:23:02;22.60;99.90
7117;DHT22;3600;48.568;7.870;2023-09-08T09:25:31;22.60;99.90
7117;DHT22;3600;48.568;7.870;2023-09-08T09:28:00;22.70;99.90
7117;DHT22;3600;48.568;7.870;2023-09-08T09:30:28;22.80;99.90
7117;DHT22;3600;48.568;7.870;2023-09-08T09:33:12;22.90;99.90
7117;DHT22;3600;48.568;7.870;2023-09-08T09:35:47;23.10;99.90
7117;DHT22;3600;48.568;7.870;2023-09-08T09:38:14;23.30;99.90
7117;DHT22;3600;48.568;7.870;2023-09-08T09:40:41;23.30;99.90
7117;DHT22;3600;48.568;7.870;2023-09-08T09:43:10;23.40;99.90
7117;DHT22;3600;48.568;7.870;2023-09-08T09:45:39;23.70;99.90
7117;DHT22;3600;48.568;7.870;2023-09-08T09:48:06;23.70;99.90
7117;DHT22;3600;48.568;7.870;2023-09-08T09:50:41;23.80;99.90
7117;DHT22;3600;48.568;7.870;2023-09-08T09:53:14;23.80;99.90
7117;DHT22;3600;48.568;7.870;2023-09-08T09:55:43;24.00;99.90
7117;DHT22;3600;48.568;7.870;2023-09-08T09:58:11;24.10;99.90
7117;DHT22;3600;48.568;7.870;2023-09-08T10:00:39;24.20;99.90
7117;DHT22;3600;48.568;7.870;2023-09-08T10:03:14;24.20;99.90
7117;DHT22;3600;48.568;7.870;2023-09-08T10:05:41;24.30;99.90
7117;DHT22;3600;48.568;7.870;2023-09-08T10:08:08;24.50;99.90
7117;DHT22;3600;48.568;7.870;2023-09-08T10:10:37;24.60;99.90
7117;DHT22;3600;48.568;7.870;2023-09-08T10:13:06;24.60;99.90
7117;DHT22;3600;48.568;7.870;2023-09-08T10:15:34;24.70;99.90
7117;DHT22;3600;48.568;7.870;2023-09-08T10:18:05;24.80;99.90
7117;DHT22;3600;48.568;7.870;2023-09-08T10:20:33;24.80;99.90
7117;DHT22;3600;48.568;7.870;2023-09-08T10:23:07;25.00;99.90
7117;DHT22;3600;48.568;7.870;2023-09-08T10:25:43;25.00;99.90
7117;DHT22;3600;48.568;7.870;2023-09-08T10:28:12;25.00;99.90
7117;DHT22;3600;48.568;7.870;2023-09-08T10:30:40;25.10;99.90
7117;DHT22;3600;48.568;7.870;2023-09-08T10:33:08;25.20;99.90
7117;DHT22;3600;48.568;7.870;2023-09-08T10:35:36;25.50;99.90
7117;DHT22;3600;48.568;7.870;2023-09-08T10:38:22;25.70;99.90
7117;DHT22;3600;48.568;7.870;2023-09-08T10:40:51;25.80;99.90
7117;DHT22;3600;48.568;7.870;2023-09-08T10:43:19;25.80;99.90
7117;DHT22;3600;48.568;7.870;2023-09-08T10:45:47;25.90;99.90
7117;DHT22;3600;48.568;7.870;2023-09-08T10:48:14;25.90;99.90
7117;DHT22;3600;48.568;7.870;2023-09-08T10:50:42;26.00;99.90
7117;DHT22;3600;48.568;7.870;2023-09-08T10:53:19;26.10;99.90
7117;DHT22;3600;48.568;7.870;2023-09-08T10:55:47;26.10;99.90
7117;DHT22;3600;48.568;7.870;2023-09-08T10:58:36;26.30;99.90
7117;DHT22;3600;48.568;7.870;2023-09-08T11:01:05;26.50;99.90
7117;DHT22;3600;48.568;7.870;2023-09-08T11:06:06;26.60;99.90
7117;DHT22;3600;48.568;7.870;2023-09-08T11:08:33;26.80;99.90
7117;DHT22;3600;48.568;7.870;2023-09-08T11:11:02;27.00;99.90
7117;DHT22;3600;48.568;7.870;2023-09-08T11:13:29;27.10;99.90
7117;DHT22;3600;48.568;7.870;2023-09-08T11:15:56;27.10;99.90
7117;DHT22;3600;48.568;7.870;2023-09-08T11:18:30;26.90;99.90
7117;DHT22;3600;48.568;7.870;2023-09-08T11:20:58;27.20;99.90
7117;DHT22;3600;48.568;7.870;2023-09-08T11:23:25;27.20;99.90
7117;DHT22;3600;48.568;7.870;2023-09-08T11:25:53;27.50;99.90
7117;DHT22;3600;48.568;7.870;2023-09-08T11:28:23;27.30;99.90
7117;DHT22;3600;48.568;7.870;2023-09-08T11:30:50;27.20;99.90
7117;DHT22;3600;48.568;7.870;2023-09-08T11:33:19;27.30;99.90
7117;DHT22;3600;48.568;7.870;2023-09-08T11:35:53;27.60;99.90
7117;DHT22;3600;48.568;7.870;2023-09-08T11:38:28;27.50;99.90
7117;DHT22;3600;48.568;7.870;2023-09-08T11:40:57;27.50;99.90
7117;DHT22;3600;48.568;7.870;2023-09-08T11:43:28;27.20;99.90
7117;DHT22;3600;48.568;7.870;2023-09-08T11:45:55;27.30;99.90
7117;DHT22;3600;48.568;7.870;2023-09-08T11:48:24;27.60;99.90
7117;DHT22;3600;48.568;7.870;2023-09-08T11:50:55;27.70;99.90
7117;DHT22;3600;48.568;7.870;2023-09-08T11:53:22;27.70;99.90
7117;DHT22;3600;48.568;7.870;2023-09-08T11:55:50;27.80;99.90
7117;DHT22;3600;48.568;7.870;2023-09-08T11:58:18;27.70;99.90
7117;DHT22;3600;48.568;7.870;2023-09-08T12:00:46;27.80;99.90
7117;DHT22;3600;48.568;7.870;2023-09-08T12:03:16;28.10;99.90
7117;DHT22;3600;48.568;7.870;2023-09-08T12:05:52;28.40;99.90
7117;DHT22;3600;48.568;7.870;2023-09-08T12:08:19;28.40;99.90
7117;DHT22;3600;48.568;7.870;2023-09-08T12:10:46;28.00;99.90
7117;DHT22;3600;48.568;7.870;2023-09-08T12:13:13;28.00;99.90
7117;DHT22;3600;48.568;7.870;2023-09-08T12:15:46;28.60;99.90
7117;DHT22;3600;48.568;7.870;2023-09-08T12:18:14;28.60;99.90
7117;DHT22;3600;48.568;7.870;2023-09-08T12:20:44;28.40;99.90
7117;DHT22;3600;48.568;7.870;2023-09-08T12:23:21;28.40;99.90
7117;DHT22;3600;48.568;7.870;2023-09-08T12:25:50;28.50;99.90
7117;DHT22;3600;48.568;7.870;2023-09-08T12:28:19;28.60;99.90
7117;DHT22;3600;48.568;7.870;2023-09-08T12:30:48;28.70;99.90
7117;DHT22;3600;48.568;7.870;2023-09-08T12:33:16;29.00;99.90
7117;DHT22;3600;48.568;7.870;2023-09-08T12:35:47;28.80;99.90
7117;DHT22;3600;48.568;7.870;2023-09-08T12:38:19;28.60;99.90
7117;DHT22;3600;48.568;7.870;2023-09-08T12:40:46;28.60;99.90
7117;DHT22;3600;48.568;7.870;2023-09-08T12:43:15;28.70;99.90
7117;DHT22;3600;48.568;7.870;2023-09-08T12:45:54;29.00;99.90
7117;DHT22;3600;48.568;7.870;2023-09-08T12:48:22;29.30;99.90
7117;DHT22;3600;48.568;7.870;2023-09-08T12:50:49;28.90;99.90
7117;DHT22;3600;48.568;7.870;2023-09-08T12:53:16;29.30;99.90
7117;DHT22;3600;48.568;7.870;2023-09-08T12:55:45;29.30;99.90
7117;DHT22;3600;48.568;7.870;2023-09-08T12:58:12;28.90;99.90
7117;DHT22;3600;48.568;7.870;2023-09-08T13:00:39;28.80;99.90
7117;DHT22;3600;48.568;7.870;2023-09-08T13:03:06;29.00;99.90
7117;DHT22;3600;48.568;7.870;2023-09-08T13:05:33;29.20;99.90
7117;DHT22;3600;48.568;7.870;2023-09-08T13:08:00;29.20;99.90
7117;DHT22;3600;48.568;7.870;2023-09-08T13:10:27;29.20;99.90
7117;DHT22;3600;48.568;7.870;2023-09-08T13:12:54;29.40;99.90
7117;DHT22;3600;48.568;7.870;2023-09-08T13:15:22;29.70;99.90
7117;DHT22;3600;48.568;7.870;2023-09-08T13:17:50;29.80;99.90
7117;DHT22;3600;48.568;7.870;2023-09-08T13:20:18;29.70;99.90
7117;DHT22;3600;48.568;7.870;2023-09-08T13:22:45;29.50;99.90
7117;DHT22;3600;48.568;7.870;2023-09-08T13:25:12;29.70;99.90
7117;DHT22;3600;48.568;7.870;2023-09-08T13:27:40;29.60;99.90
7117;DHT22;3600;48.568;7.870;2023-09-08T13:30:12;29.70;99.90
7117;DHT22;3600;48.568;7.870;2023-09-08T13:32:39;29.90;99.90
7117;DHT22;3600;48.568;7.870;2023-09-08T13:35:07;29.90;99.90
7117;DHT22;3600;48.568;7.870;2023-09-08T13:37:34;30.20;99.90
7117;DHT22;3600;48.568;7.870;2023-09-08T13:40:02;30.40;99.90
7117;DHT22;3600;48.568;7.870;2023-09-08T13:42:31;29.80;99.90
7117;DHT22;3600;48.568;7.870;2023-09-08T13:44:58;30.40;99.90
7117;DHT22;3600;48.568;7.870;2023-09-08T13:47:26;30.40;99.90
7117;DHT22;3600;48.568;7.870;2023-09-08T13:49:53;30.30;99.90
7117;DHT22;3600;48.568;7.870;2023-09-08T13:52:24;30.20;99.90
7117;DHT22;3600;48.568;7.870;2023-09-08T13:54:57;30.10;99.90
7117;DHT22;3600;48.568;7.870;2023-09-08T13:57:26;30.20;99.90
7117;DHT22;3600;48.568;7.870;2023-09-08T13:59:55;30.50;99.90
7117;DHT22;3600;48.568;7.870;2023-09-08T14:02:23;30.20;99.60
7117;DHT22;3600;48.568;7.870;2023-09-08T14:04:53;30.30;99.90
7117;DHT22;3600;48.568;7.870;2023-09-08T14:07:24;30.20;99.60
7117;DHT22;3600;48.568;7.870;2023-09-08T14:10:01;30.00;98.00
7117;DHT22;3600;48.568;7.870;2023-09-08T14:12:41;30.20;99.90
7117;DHT22;3600;48.568;7.870;2023-09-08T14:15:08;30.20;99.90
7117;DHT22;3600;48.568;7.870;2023-09-08T14:17:35;30.00;98.00
7117;DHT22;3600;48.568;7.870;2023-09-08T14:20:02;30.10;99.50
7117;DHT22;3600;48.568;7.870;2023-09-08T14:22:30;30.10;99.60
7117;DHT22;3600;48.568;7.870;2023-09-08T14:24:57;30.20;99.70
7117;DHT22;3600;48.568;7.870;2023-09-08T14:27:24;30.00;99.60
7117;DHT22;3600;48.568;7.870;2023-09-08T14:29:51;30.10;99.90
7117;DHT22;3600;48.568;7.870;2023-09-08T14:32:17;30.40;99.50
7117;DHT22;3600;48.568;7.870;2023-09-08T14:34:44;30.50;99.00
7117;DHT22;3600;48.568;7.870;2023-09-08T14:37:11;30.50;98.60
7117;DHT22;3600;48.568;7.870;2023-09-08T14:39:38;30.80;99.60
7117;DHT22;3600;48.568;7.870;2023-09-08T14:42:05;30.40;98.90
7117;DHT22;3600;48.568;7.870;2023-09-08T14:44:32;30.50;99.00
7117;DHT22;3600;48.568;7.870;2023-09-08T14:46:59;30.70;98.90
7117;DHT22;3600;48.568;7.870;2023-09-08T14:49:26;30.50;99.30
7117;DHT22;3600;48.568;7.870;2023-09-08T14:51:53;30.50;99.40
7117;DHT22;3600;48.568;7.870;2023-09-08T14:54:19;30.50;99.00
7117;DHT22;3600;48.568;7.870;2023-09-08T14:56:46;30.40;99.10
7117;DHT22;3600;48.568;7.870;2023-09-08T14:59:13;30.40;98.90
7117;DHT22;3600;48.568;7.870;2023-09-08T15:01:40;30.40;99.30
7117;DHT22;3600;48.568;7.870;2023-09-08T15:04:07;30.20;98.00
7117;DHT22;3600;48.568;7.870;2023-09-08T15:06:34;30.00;98.60
7117;DHT22;3600;48.568;7.870;2023-09-08T15:09:01;30.00;99.20
7117;DHT22;3600;48.568;7.870;2023-09-08T15:11:28;30.20;98.90
7117;DHT22;3600;48.568;7.870;2023-09-08T15:13:55;30.10;99.10
7117;DHT22;3600;48.568;7.870;2023-09-08T15:16:22;30.20;99.80
7117;DHT22;3600;48.568;7.870;2023-09-08T15:18:49;30.20;99.90
7117;DHT22;3600;48.568;7.870;2023-09-08T15:21:16;30.10;99.10
7117;DHT22;3600;48.568;7.870;2023-09-08T15:23:44;30.00;99.00
7117;DHT22;3600;48.568;7.870;2023-09-08T15:26:11;29.90;99.90
7117;DHT22;3600;48.568;7.870;2023-09-08T15:28:38;30.00;99.10
7117;DHT22;3600;48.568;7.870;2023-09-08T15:31:05;29.90;99.30
7117;DHT22;3600;48.568;7.870;2023-09-08T15:33:32;30.20;98.20
7117;DHT22;3600;48.568;7.870;2023-09-08T15:35:59;30.00;98.50
7117;DHT22;3600;48.568;7.870;2023-09-08T15:38:26;29.80;98.40
7117;DHT22;3600;48.568;7.870;2023-09-08T15:43:39;29.80;99.90
7117;DHT22;3600;48.568;7.870;2023-09-08T15:46:07;29.40;99.90
7117;DHT22;3600;48.568;7.870;2023-09-08T15:48:36;29.50;99.90
7117;DHT22;3600;48.568;7.870;2023-09-08T15:51:05;29.40;99.90
7117;DHT22;3600;48.568;7.870;2023-09-08T15:53:32;29.50;99.90
7117;DHT22;3600;48.568;7.870;2023-09-08T15:55:59;29.40;99.90
7117;DHT22;3600;48.568;7.870;2023-09-08T15:58:26;29.30;99.90
7117;DHT22;3600;48.568;7.870;2023-09-08T16:00:52;29.30;99.90
7117;DHT22;3600;48.568;7.870;2023-09-08T16:03:19;29.30;99.90
7117;DHT22;3600;48.568;7.870;2023-09-08T16:05:47;29.10;99.90
7117;DHT22;3600;48.568;7.870;2023-09-08T16:08:13;29.20;99.90
7117;DHT22;3600;48.568;7.870;2023-09-08T16:10:40;29.20;99.90
7117;DHT22;3600;48.568;7.870;2023-09-08T16:13:07;29.10;99.90
7117;DHT22;3600;48.568;7.870;2023-09-08T16:15:34;28.90;99.90